Time,TemperatureF,DewpointF,PressureIn,WindDirection,WindDirectionDegrees,WindSpeedMPH,WindSpeedGustMPH,Humidity,HourlyPrecipIn,Conditions,Clouds,dailyrainin,SoftwareType,DateUTC
2013-01-12 00:00:00,48.3,46.9,29.97,South,190,1.0,2.0,95,0.00,,---,0.00,VWS V14.01,2013-01-12 05:00:00,
2013-01-12 00:01:00,48.3,46.9,29.97,South,190,0.0,2.0,95,0.00,,---,0.00,VWS V14.01,2013-01-12 05:01:00,
2013-01-12 00:03:00,48.3,46.9,29.97,South,190,0.0,2.0,95,0.00,,---,0.00,VWS V14.01,2013-01-12 05:03:00,
2013-01-12 00:08:00,48.5,47.4,29.97,South,180,0.0,3.0,96,0.00,,---,0.00,VWS V14.01,2013-01-12 05:08:00,
2013-01-12 00:13:00,48.5,47.1,29.97,South,180,0.0,4.0,95,0.00,,---,0.00,VWS V14.01,2013-01-12 05:13:00,
2013-01-12 00:18:00,48.5,47.1,29.96,South,180,0.0,4.0,95,0.00,,---,0.00,VWS V14.01,2013-01-12 05:18:00,
2013-01-12 00:23:00,48.5,47.1,29.96,South,180,0.0,4.0,95,0.00,,---,0.00,VWS V14.01,2013-01-12 05:23:00,
2013-01-12 00:28:00,48.4,47.0,29.97,South,180,1.0,2.0,95,0.00,,---,0.00,VWS V14.01,2013-01-12 05:28:00,
2013-01-12 00:30:00,48.4,47.0,29.97,South,180,0.0,4.0,95,0.00,,---,0.00,VWS V14.01,2013-01-12 05:30:00,
2013-01-12 00:33:00,48.3,46.9,29.97,South,180,0.0,2.0,95,0.00,,---,0.00,VWS V14.01,2013-01-12 05:33:00,
2013-01-12 00:38:00,48.3,46.9,29.97,South,175,0.0,4.0,95,0.00,,---,0.00,VWS V14.01,2013-01-12 05:38:00,
2013-01-12 00:43:00,48.3,46.9,29.97,South,175,0.0,4.0,95,0.00,,---,0.00,VWS V14.01,2013-01-12 05:43:00,
2013-01-12 00:48:00,48.4,47.0,29.97,South,184,2.0,4.0,95,0.00,,---,0.00,VWS V14.01,2013-01-12 05:48:00,
2013-01-12 00:53:00,48.5,47.1,29.96,South,175,0.0,4.0,95,0.00,,---,0.00,VWS V14.01,2013-01-12 05:53:00,
2013-01-12 00:58:00,48.4,47.0,29.97,South,175,0.0,0.0,95,0.00,,---,0.00,VWS V14.01,2013-01-12 05:58:00,
2013-01-12 01:00:00,48.4,47.0,29.97,South,175,0.0,4.0,95,0.00,,---,0.00,VWS V14.01,2013-01-12 06:00:00,
2013-01-12 01:03:00,48.2,46.8,29.96,South,175,1.0,2.0,95,0.00,,---,0.00,VWS V14.01,2013-01-12 06:03:00,
2013-01-12 01:08:00,48.3,46.9,29.97,South,175,0.0,2.0,95,0.00,,---,0.00,VWS V14.01,2013-01-12 06:08:00,
2013-01-12 01:13:00,48.3,46.9,29.96,SW,226,1.0,2.0,95,0.00,,---,0.00,VWS V14.01,2013-01-12 06:13:00,
2013-01-12 01:18:00,48.3,46.9,29.97,SW,226,0.0,2.0,95,0.00,,---,0.00,VWS V14.01,2013-01-12 06:18:00,
2013-01-12 01:23:00,48.3,47.2,29.96,SSE,163,0.0,3.0,96,0.00,,---,0.00,VWS V14.01,2013-01-12 06:23:00,
2013-01-12 01:28:00,48.4,47.3,29.97,South,186,0.0,3.0,96,0.00,,---,0.00,VWS V14.01,2013-01-12 06:28:00,
2013-01-12 01:30:00,48.3,46.9,29.97,South,186,0.0,4.0,95,0.00,,---,0.00,VWS V14.01,2013-01-12 06:30:00,
2013-01-12 01:33:00,48.5,47.4,29.97,South,186,0.0,3.0,96,0.00,,---,0.00,VWS V14.01,2013-01-12 06:33:00,
2013-01-12 01:38:00,48.5,47.4,29.97,South,186,0.0,3.0,96,0.00,,---,0.00,VWS V14.01,2013-01-12 06:38:00,
2013-01-12 01:43:00,48.5,47.4,29.97,South,186,0.0,3.0,96,0.00,,---,0.00,VWS V14.01,2013-01-12 06:43:00,
2013-01-12 01:48:00,48.6,47.5,29.97,South,186,0.0,3.0,96,0.00,,---,0.00,VWS V14.01,2013-01-12 06:48:00,
2013-01-12 01:53:00,48.6,47.5,29.97,South,186,1.0,3.0,96,0.00,,---,0.00,VWS V14.01,2013-01-12 06:53:00,
2013-01-12 01:58:00,48.5,47.4,29.97,SE,128,0.0,1.0,96,0.00,,---,0.00,VWS V14.01,2013-01-12 06:58:00,
2013-01-12 02:00:00,48.5,47.4,29.97,SE,128,0.0,3.0,96,0.00,,---,0.00,VWS V14.01,2013-01-12 07:00:00,
2013-01-12 02:04:00,48.6,47.5,29.97,SE,132,0.0,4.0,96,0.00,,---,0.00,VWS V14.01,2013-01-12 07:04:00,
2013-01-12 02:09:00,48.7,47.6,29.97,SE,133,1.0,4.0,96,0.00,,---,0.00,VWS V14.01,2013-01-12 07:09:00,
2013-01-12 02:14:00,48.6,47.5,29.97,South,170,0.0,4.0,96,0.00,,---,0.00,VWS V14.01,2013-01-12 07:14:00,
2013-01-12 02:19:00,48.6,47.5,29.97,SE,135,4.0,4.0,96,0.00,,---,0.00,VWS V14.01,2013-01-12 07:19:00,
2013-01-12 02:24:00,48.6,47.5,29.97,South,180,2.0,4.0,96,0.00,,---,0.00,VWS V14.01,2013-01-12 07:24:00,
2013-01-12 02:29:00,48.6,47.5,29.98,SSW,208,0.0,2.0,96,0.00,,---,0.00,VWS V14.01,2013-01-12 07:29:00,
2013-01-12 02:30:00,48.6,47.5,29.98,SSW,208,2.0,4.0,96,0.00,,---,0.00,VWS V14.01,2013-01-12 07:30:00,
2013-01-12 02:34:00,48.5,47.4,29.98,SSW,209,0.0,4.0,96,0.00,,---,0.00,VWS V14.01,2013-01-12 07:34:00,
2013-01-12 02:39:00,48.5,47.4,29.98,SSW,211,2.0,4.0,96,0.00,,---,0.00,VWS V14.01,2013-01-12 07:39:00,
2013-01-12 02:44:00,48.5,47.4,29.98,SSW,209,0.0,4.0,96,0.00,,---,0.00,VWS V14.01,2013-01-12 07:44:00,
2013-01-12 02:49:00,48.5,47.4,29.99,SW,220,0.0,4.0,96,0.00,,---,0.00,VWS V14.01,2013-01-12 07:49:00,
2013-01-12 02:54:00,48.4,47.3,29.99,SSE,154,0.0,5.0,96,0.00,,---,0.00,VWS V14.01,2013-01-12 07:54:00,
2013-01-12 02:59:00,48.4,47.3,29.99,SSE,154,0.0,1.0,96,0.00,,---,0.00,VWS V14.01,2013-01-12 07:59:00,
2013-01-12 03:00:00,48.4,47.3,29.99,SSE,154,0.0,5.0,96,0.00,,---,0.00,VWS V14.01,2013-01-12 08:00:00,
2013-01-12 03:04:00,48.2,47.1,29.99,SSE,154,0.0,3.0,96,0.00,,---,0.00,VWS V14.01,2013-01-12 08:04:00,
2013-01-12 03:09:00,48.2,47.1,29.99,South,180,4.0,4.0,96,0.00,,---,0.00,VWS V14.01,2013-01-12 08:09:00,
2013-01-12 03:14:00,48.1,47.0,29.99,South,175,0.0,4.0,96,0.00,,---,0.00,VWS V14.01,2013-01-12 08:14:00,
2013-01-12 03:19:00,48.0,46.9,29.99,SE,134,0.0,4.0,96,0.00,,---,0.00,VWS V14.01,2013-01-12 08:19:00,
2013-01-12 03:24:00,48.0,46.9,29.98,SSW,204,0.0,4.0,96,0.00,,---,0.00,VWS V14.01,2013-01-12 08:24:00,
2013-01-12 03:29:00,47.9,46.8,29.98,SSW,204,0.0,1.0,96,0.00,,---,0.00,VWS V14.01,2013-01-12 08:29:00,
2013-01-12 03:30:00,47.9,46.8,29.98,SSW,204,1.0,4.0,96,0.00,,---,0.00,VWS V14.01,2013-01-12 08:30:00,
2013-01-12 03:34:00,47.8,46.7,29.98,SSW,204,0.0,2.0,96,0.00,,---,0.00,VWS V14.01,2013-01-12 08:34:00,
2013-01-12 03:39:00,47.8,46.7,29.98,South,175,1.0,3.0,96,0.00,,---,0.00,VWS V14.01,2013-01-12 08:39:00,
2013-01-12 03:44:00,47.8,46.7,29.98,SSE,148,1.0,4.0,96,0.00,,---,0.00,VWS V14.01,2013-01-12 08:44:00,
2013-01-12 03:49:00,47.7,46.6,29.98,SSW,194,1.0,4.0,96,0.00,,---,0.00,VWS V14.01,2013-01-12 08:49:00,
2013-01-12 03:54:00,47.7,46.6,29.99,SW,234,2.0,4.0,96,0.00,,---,0.00,VWS V14.01,2013-01-12 08:54:00,
2013-01-12 03:59:00,47.7,46.6,29.98,SW,234,0.0,1.0,96,0.00,,---,0.00,VWS V14.01,2013-01-12 08:59:00,
2013-01-12 04:00:00,47.7,46.6,29.99,SW,234,0.0,4.0,96,0.00,,---,0.00,VWS V14.01,2013-01-12 09:00:00,
2013-01-12 04:04:00,47.6,46.5,29.98,South,180,1.0,3.0,96,0.00,,---,0.00,VWS V14.01,2013-01-12 09:04:00,
2013-01-12 04:09:00,47.8,46.7,29.98,South,180,2.0,4.0,96,0.00,,---,0.00,VWS V14.01,2013-01-12 09:09:00,
2013-01-12 04:14:00,47.8,46.7,29.98,South,180,2.0,4.0,96,0.00,,---,0.00,VWS V14.01,2013-01-12 09:14:00,
2013-01-12 04:19:00,47.7,46.6,29.98,South,180,0.0,4.0,96,0.00,,---,0.00,VWS V14.01,2013-01-12 09:19:00,
2013-01-12 04:24:00,47.7,46.6,29.98,South,180,0.0,4.0,96,0.00,,---,0.00,VWS V14.01,2013-01-12 09:24:00,
2013-01-12 04:29:00,47.6,46.5,29.98,South,180,3.0,5.0,96,0.00,,---,0.00,VWS V14.01,2013-01-12 09:29:00,
2013-01-12 04:30:00,47.6,46.5,29.98,SSE,166,0.0,4.0,96,0.00,,---,0.00,VWS V14.01,2013-01-12 09:30:00,
2013-01-12 04:34:00,47.4,46.3,29.98,South,180,0.0,5.0,96,0.00,,---,0.00,VWS V14.01,2013-01-12 09:34:00,
2013-01-12 04:39:00,47.3,46.2,29.98,SE,136,2.0,5.0,96,0.00,,---,0.00,VWS V14.01,2013-01-12 09:39:00,
2013-01-12 04:44:00,47.2,46.1,29.99,South,170,3.0,5.0,96,0.00,,---,0.00,VWS V14.01,2013-01-12 09:44:00,
2013-01-12 04:49:00,47.1,46.0,29.98,SSW,199,1.0,5.0,96,0.00,,---,0.00,VWS V14.01,2013-01-12 09:49:00,
2013-01-12 04:54:00,47.1,46.3,29.98,South,170,2.0,5.0,97,0.00,,---,0.00,VWS V14.01,2013-01-12 09:54:00,
2013-01-12 04:59:00,47.1,46.3,29.98,SSW,199,3.0,3.0,97,0.00,,---,0.00,VWS V14.01,2013-01-12 09:59:00,
2013-01-12 05:00:00,47.1,46.3,29.98,South,170,0.0,5.0,97,0.00,,---,0.00,VWS V14.01,2013-01-12 10:00:00,
2013-01-12 05:04:00,47.1,46.3,29.98,SSW,192,2.0,5.0,97,0.00,,---,0.00,VWS V14.01,2013-01-12 10:04:00,
2013-01-12 05:09:00,47.4,46.6,29.99,SSW,212,0.0,5.0,97,0.00,,---,0.00,VWS V14.01,2013-01-12 10:09:00,
2013-01-12 05:14:00,47.5,46.7,29.99,SSE,147,2.0,5.0,97,0.00,,---,0.00,VWS V14.01,2013-01-12 10:14:00,
2013-01-12 05:19:00,47.8,47.0,29.99,SSW,213,3.0,6.0,97,0.00,,---,0.00,VWS V14.01,2013-01-12 10:19:00,
2013-01-12 05:24:00,48.1,47.3,29.99,SSW,206,4.0,7.0,97,0.00,,---,0.00,VWS V14.01,2013-01-12 10:24:00,
2013-01-12 05:29:00,48.3,47.5,29.99,SE,139,1.0,1.0,97,0.00,,---,0.00,VWS V14.01,2013-01-12 10:29:00,
2013-01-12 05:30:00,48.2,47.4,29.99,SSW,205,0.0,7.0,97,0.00,,---,0.00,VWS V14.01,2013-01-12 10:30:00,
2013-01-12 05:34:00,48.5,47.7,29.99,SSW,201,2.0,3.0,97,0.00,,---,0.00,VWS V14.01,2013-01-12 10:34:00,
2013-01-12 05:39:00,48.8,48.0,29.99,SE,140,1.0,6.0,97,0.00,,---,0.00,VWS V14.01,2013-01-12 10:39:00,
2013-01-12 05:44:00,49.0,48.2,29.99,South,180,1.0,6.0,97,0.00,,---,0.00,VWS V14.01,2013-01-12 10:44:00,
2013-01-12 05:49:00,49.2,48.7,29.99,South,170,0.0,6.0,98,0.00,,---,0.00,VWS V14.01,2013-01-12 10:49:00,
2013-01-12 05:54:00,49.5,49.0,29.99,SSW,197,0.0,6.0,98,0.00,,---,0.00,VWS V14.01,2013-01-12 10:54:00,
2013-01-12 05:59:00,49.7,49.2,29.99,SSW,206,3.0,5.0,98,0.00,,---,0.00,VWS V14.01,2013-01-12 10:59:00,
2013-01-12 06:00:00,49.6,49.1,29.99,ESE,119,5.0,7.0,98,0.00,,---,0.00,VWS V14.01,2013-01-12 11:00:00,
2013-01-12 06:04:00,49.9,49.4,29.99,South,180,1.0,6.0,98,0.00,,---,0.00,VWS V14.01,2013-01-12 11:04:00,
2013-01-12 06:10:00,50.0,49.5,29.99,South,175,2.0,6.0,98,0.00,,---,0.00,VWS V14.01,2013-01-12 11:10:00,
2013-01-12 06:15:00,50.0,49.5,29.99,SSE,149,0.0,6.0,98,0.00,,---,0.00,VWS V14.01,2013-01-12 11:15:00,
2013-01-12 06:20:00,50.2,49.7,29.99,SSE,163,0.0,6.0,98,0.00,,---,0.00,VWS V14.01,2013-01-12 11:20:00,
2013-01-12 06:25:00,50.3,49.8,29.99,South,180,4.0,6.0,98,0.00,,---,0.00,VWS V14.01,2013-01-12 11:25:00,
2013-01-12 06:30:00,50.3,49.8,29.99,South,190,3.0,4.0,98,0.00,,---,0.00,VWS V14.01,2013-01-12 11:30:00,
2013-01-12 06:35:00,50.3,49.8,29.99,South,180,0.0,6.0,98,0.00,,---,0.00,VWS V14.01,2013-01-12 11:35:00,
2013-01-12 06:40:00,50.1,49.6,29.99,SW,215,1.0,6.0,98,0.00,,---,0.00,VWS V14.01,2013-01-12 11:40:00,
2013-01-12 06:45:00,50.1,49.6,29.99,South,186,3.0,6.0,98,0.00,,---,0.00,VWS V14.01,2013-01-12 11:45:00,
2013-01-12 06:50:00,50.1,49.6,29.99,SE,130,5.0,6.0,98,0.00,,---,0.00,VWS V14.01,2013-01-12 11:50:00,
2013-01-12 06:55:00,50.2,49.7,29.99,ESE,114,0.0,6.0,98,0.00,,---,0.00,VWS V14.01,2013-01-12 11:55:00,
2013-01-12 07:00:00,50.4,49.9,30.00,South,175,2.0,2.0,98,0.00,,---,0.00,VWS V14.01,2013-01-12 12:00:00,
2013-01-12 07:05:00,50.5,50.0,29.99,South,188,2.0,5.0,98,0.00,,---,0.00,VWS V14.01,2013-01-12 12:05:00,
2013-01-12 07:10:00,50.5,50.0,30.00,ESE,113,0.0,5.0,98,0.00,,---,0.00,VWS V14.01,2013-01-12 12:10:00,
2013-01-12 07:15:00,50.6,50.1,29.99,SE,144,2.0,6.0,98,0.00,,---,0.00,VWS V14.01,2013-01-12 12:15:00,
2013-01-12 07:20:00,50.6,50.1,29.99,SSW,210,1.0,6.0,98,0.00,,---,0.00,VWS V14.01,2013-01-12 12:20:00,
2013-01-12 07:25:00,50.7,50.2,29.99,SE,126,1.0,6.0,98,0.00,,---,0.00,VWS V14.01,2013-01-12 12:25:00,
2013-01-12 07:30:00,50.7,50.2,29.99,South,180,0.0,4.0,98,0.00,,---,0.00,VWS V14.01,2013-01-12 12:30:00,
2013-01-12 07:35:00,50.6,50.1,29.99,South,180,0.0,4.0,98,0.00,,---,0.00,VWS V14.01,2013-01-12 12:35:00,
2013-01-12 07:40:00,50.4,49.9,30.00,South,180,0.0,4.0,98,0.00,,---,0.00,VWS V14.01,2013-01-12 12:40:00,
2013-01-12 07:45:00,50.3,49.8,29.99,SSW,193,1.0,4.0,98,0.00,,---,0.00,VWS V14.01,2013-01-12 12:45:00,
2013-01-12 07:50:00,50.2,49.4,30.00,SSW,193,1.0,4.0,97,0.00,,---,0.00,VWS V14.01,2013-01-12 12:50:00,
2013-01-12 07:55:00,50.2,49.4,30.00,SSE,161,2.0,4.0,97,0.00,,---,0.00,VWS V14.01,2013-01-12 12:55:00,
2013-01-12 08:00:00,50.2,49.4,30.00,South,190,3.0,3.0,97,0.00,,---,0.00,VWS V14.01,2013-01-12 13:00:00,
2013-01-12 08:05:00,50.2,49.4,30.00,SE,134,3.0,4.0,97,0.00,,---,0.00,VWS V14.01,2013-01-12 13:05:00,
2013-01-12 08:10:00,50.2,49.4,30.01,SE,130,2.0,4.0,97,0.00,,---,0.00,VWS V14.01,2013-01-12 13:10:00,
2013-01-12 08:15:00,50.0,49.5,30.00,SSW,209,2.0,5.0,98,0.00,,---,0.00,VWS V14.01,2013-01-12 13:15:00,
2013-01-12 08:20:00,50.2,49.7,30.00,South,184,1.0,5.0,98,0.00,,---,0.00,VWS V14.01,2013-01-12 13:20:00,
2013-01-12 08:25:00,50.3,49.8,30.01,South,175,2.0,5.0,98,0.00,,---,0.00,VWS V14.01,2013-01-12 13:25:00,
2013-01-12 08:30:00,50.1,49.3,30.02,South,180,1.0,2.0,97,0.00,,---,0.00,VWS V14.01,2013-01-12 13:30:00,
2013-01-12 08:35:00,50.2,49.4,30.01,South,170,0.0,5.0,97,0.00,,---,0.00,VWS V14.01,2013-01-12 13:35:00,
2013-01-12 08:40:00,50.5,50.0,30.01,SSW,197,3.0,8.0,98,0.00,,---,0.00,VWS V14.01,2013-01-12 13:40:00,
2013-01-12 08:45:00,50.8,50.3,30.01,South,180,1.0,8.0,98,0.00,,---,0.00,VWS V14.01,2013-01-12 13:45:00,
2013-01-12 08:50:00,50.8,50.3,30.01,SSW,212,1.0,8.0,98,0.00,,---,0.00,VWS V14.01,2013-01-12 13:50:00,
2013-01-12 08:55:00,50.8,50.0,30.01,SSW,205,1.0,8.0,97,0.00,,---,0.00,VWS V14.01,2013-01-12 13:55:00,
2013-01-12 09:00:00,50.8,50.0,30.02,SW,221,0.0,2.0,97,0.00,,---,0.00,VWS V14.01,2013-01-12 14:00:00,
2013-01-12 09:05:00,50.9,50.4,30.01,SSW,196,1.0,4.0,98,0.00,,---,0.00,VWS V14.01,2013-01-12 14:05:00,
2013-01-12 09:10:00,51.1,50.6,30.02,SSW,192,4.0,6.0,98,0.00,,---,0.00,VWS V14.01,2013-01-12 14:10:00,
2013-01-12 09:15:00,51.3,50.8,30.02,SSW,207,2.0,6.0,98,0.00,,---,0.00,VWS V14.01,2013-01-12 14:15:00,
2013-01-12 09:20:00,51.4,50.6,30.02,SSW,211,1.0,6.0,97,0.00,,---,0.00,VWS V14.01,2013-01-12 14:20:00,
2013-01-12 09:25:00,51.4,50.6,30.02,SSW,211,0.0,6.0,97,0.00,,---,0.00,VWS V14.01,2013-01-12 14:25:00,
2013-01-12 09:30:00,51.5,50.7,30.02,SSW,204,3.0,8.0,97,0.00,,---,0.00,VWS V14.01,2013-01-12 14:30:00,
2013-01-12 09:35:00,51.7,51.2,30.03,SSW,197,0.0,8.0,98,0.00,,---,0.00,VWS V14.01,2013-01-12 14:35:00,
2013-01-12 09:40:00,52.1,51.3,30.02,SSW,202,1.0,8.0,97,0.00,,---,0.00,VWS V14.01,2013-01-12 14:40:00,
2013-01-12 09:45:00,52.3,51.5,30.03,SSW,194,2.0,8.0,97,0.00,,---,0.00,VWS V14.01,2013-01-12 14:45:00,
2013-01-12 09:50:00,52.3,51.5,30.03,SSW,208,4.0,8.0,97,0.00,,---,0.00,VWS V14.01,2013-01-12 14:50:00,
2013-01-12 09:55:00,52.7,51.9,30.03,SSE,166,1.0,8.0,97,0.00,,---,0.00,VWS V14.01,2013-01-12 14:55:00,
2013-01-12 10:00:00,53.0,52.2,30.03,SSW,203,4.0,5.0,97,0.00,,---,0.00,VWS V14.01,2013-01-12 15:00:00,
2013-01-12 10:05:00,53.2,52.4,30.03,SSW,204,4.0,6.0,97,0.00,,---,0.00,VWS V14.01,2013-01-12 15:05:00,
2013-01-12 10:10:00,53.3,52.2,30.03,South,175,3.0,7.0,96,0.00,,---,0.00,VWS V14.01,2013-01-12 15:10:00,
2013-01-12 10:15:00,53.4,52.3,30.03,SW,215,5.0,9.0,96,0.00,,---,0.00,VWS V14.01,2013-01-12 15:15:00,
2013-01-12 10:20:00,53.7,52.6,30.04,SSW,195,2.0,9.0,96,0.00,,---,0.00,VWS V14.01,2013-01-12 15:20:00,
2013-01-12 10:25:00,53.9,52.5,30.04,SSW,207,3.0,9.0,95,0.00,,---,0.00,VWS V14.01,2013-01-12 15:25:00,
2013-01-12 10:30:00,54.2,52.8,30.04,SSW,208,0.0,3.0,95,0.00,,---,0.00,VWS V14.01,2013-01-12 15:30:00,
2013-01-12 10:35:00,54.4,53.0,30.04,WSW,242,2.0,5.0,95,0.00,,---,0.00,VWS V14.01,2013-01-12 15:35:00,
2013-01-12 10:40:00,54.6,52.9,30.04,SSW,207,1.0,7.0,94,0.00,,---,0.00,VWS V14.01,2013-01-12 15:40:00,
2013-01-12 10:45:00,54.8,53.1,30.03,SSW,203,3.0,7.0,94,0.00,,---,0.00,VWS V14.01,2013-01-12 15:45:00,
2013-01-12 10:50:00,55.1,53.1,30.03,SSW,199,1.0,8.0,93,0.00,,---,0.00,VWS V14.01,2013-01-12 15:50:00,
2013-01-12 10:55:00,55.3,53.3,30.03,South,187,3.0,8.0,93,0.00,,---,0.00,VWS V14.01,2013-01-12 15:55:00,
2013-01-12 11:00:00,55.4,53.4,30.03,SSW,194,1.0,8.0,93,0.00,,---,0.00,VWS V14.01,2013-01-12 16:00:00,
2013-01-12 11:01:00,55.5,53.2,30.03,SSW,195,0.0,3.0,92,0.00,,---,0.00,VWS V14.01,2013-01-12 16:01:00,
2013-01-12 11:06:00,55.6,53.3,30.03,SW,224,1.0,6.0,92,0.00,,---,0.00,VWS V14.01,2013-01-12 16:06:00,
2013-01-12 11:11:00,55.8,53.5,30.04,SW,216,2.0,6.0,92,0.00,,---,0.00,VWS V14.01,2013-01-12 16:11:00,
2013-01-12 11:16:00,56.1,53.5,30.03,SSW,205,1.0,6.0,91,0.00,,---,0.00,VWS V14.01,2013-01-12 16:16:00,
2013-01-12 11:21:00,56.3,53.4,30.03,SSW,193,4.0,6.0,90,0.00,,---,0.00,VWS V14.01,2013-01-12 16:21:00,
2013-01-12 11:26:00,56.6,53.7,30.03,SW,219,4.0,6.0,90,0.00,,---,0.00,VWS V14.01,2013-01-12 16:26:00,
2013-01-12 11:30:00,56.6,53.4,30.02,SSW,211,2.0,6.0,89,0.00,,---,0.00,VWS V14.01,2013-01-12 16:30:00,
2013-01-12 11:31:00,56.8,53.6,30.02,SSW,211,0.0,2.0,89,0.00,,---,0.00,VWS V14.01,2013-01-12 16:31:00,
2013-01-12 11:36:00,56.9,53.7,30.02,SSW,195,0.0,3.0,89,0.00,,---,0.00,VWS V14.01,2013-01-12 16:36:00,
2013-01-12 11:41:00,57.2,53.7,30.02,SSW,192,0.0,6.0,88,0.00,,---,0.00,VWS V14.01,2013-01-12 16:41:00,
2013-01-12 11:46:00,57.3,53.8,30.02,SSW,194,1.0,6.0,88,0.00,,---,0.00,VWS V14.01,2013-01-12 16:46:00,
2013-01-12 11:51:00,57.5,53.7,30.01,SSE,161,3.0,8.0,87,0.00,,---,0.00,VWS V14.01,2013-01-12 16:51:00,
2013-01-12 11:56:00,57.5,53.7,30.01,SSW,211,1.0,9.0,87,0.00,,---,0.00,VWS V14.01,2013-01-12 16:56:00,
2013-01-12 12:00:00,57.6,53.8,30.01,SSW,211,0.0,9.0,87,0.00,,---,0.00,VWS V14.01,2013-01-12 17:00:00,
2013-01-12 12:01:00,57.8,54.0,30.01,South,186,1.0,4.0,87,0.00,,---,0.00,VWS V14.01,2013-01-12 17:01:00,
2013-01-12 12:06:00,58.0,53.8,30.01,South,191,1.0,6.0,86,0.00,,---,0.00,VWS V14.01,2013-01-12 17:06:00,
2013-01-12 12:11:00,58.1,53.9,30.01,SSW,199,4.0,6.0,86,0.00,,---,0.00,VWS V14.01,2013-01-12 17:11:00,
2013-01-12 12:16:00,58.2,53.7,30.02,South,190,2.0,6.0,85,0.00,,---,0.00,VWS V14.01,2013-01-12 17:16:00,
2013-01-12 12:21:00,58.2,54.0,30.02,SSW,195,3.0,6.0,86,0.00,,---,0.00,VWS V14.01,2013-01-12 17:21:00,
2013-01-12 12:26:00,58.2,53.7,30.01,SSE,161,3.0,7.0,85,0.00,,---,0.00,VWS V14.01,2013-01-12 17:26:00,
2013-01-12 12:30:00,58.3,53.8,30.01,SSW,195,3.0,7.0,85,0.00,,---,0.00,VWS V14.01,2013-01-12 17:30:00,
2013-01-12 12:31:00,58.6,54.1,30.01,South,180,3.0,6.0,85,0.00,,---,0.00,VWS V14.01,2013-01-12 17:31:00,
2013-01-12 12:36:00,58.8,54.0,30.00,SW,221,0.0,6.0,84,0.00,,---,0.00,VWS V14.01,2013-01-12 17:36:00,
2013-01-12 12:41:00,58.8,54.0,30.00,SSW,201,0.0,6.0,84,0.00,,---,0.00,VWS V14.01,2013-01-12 17:41:00,
2013-01-12 12:46:00,58.7,53.9,30.00,SSW,196,1.0,6.0,84,0.00,,---,0.00,VWS V14.01,2013-01-12 17:46:00,
2013-01-12 12:51:00,58.7,53.6,30.00,SSW,194,4.0,6.0,83,0.00,,---,0.00,VWS V14.01,2013-01-12 17:51:00,
2013-01-12 12:56:00,58.7,53.9,30.00,SW,217,4.0,6.0,84,0.00,,---,0.00,VWS V14.01,2013-01-12 17:56:00,
2013-01-12 13:00:00,58.7,53.6,30.00,SSW,194,3.0,6.0,83,0.00,,---,0.00,VWS V14.01,2013-01-12 18:00:00,
2013-01-12 13:01:00,58.9,54.1,29.99,SSW,208,4.0,9.0,84,0.00,,---,0.00,VWS V14.01,2013-01-12 18:01:00,
2013-01-12 13:06:00,59.2,53.7,30.00,SW,215,3.0,9.0,82,0.00,,---,0.00,VWS V14.01,2013-01-12 18:06:00,
2013-01-12 13:11:00,59.2,53.7,29.99,SSW,210,3.0,9.0,82,0.00,,---,0.00,VWS V14.01,2013-01-12 18:11:00,
2013-01-12 13:16:00,59.1,53.6,29.99,SSW,207,0.0,9.0,82,0.00,,---,0.00,VWS V14.01,2013-01-12 18:16:00,
2013-01-12 13:21:00,59.0,53.8,29.99,SSW,200,1.0,9.0,83,0.00,,---,0.00,VWS V14.01,2013-01-12 18:21:00,
2013-01-12 13:26:00,59.1,54.0,29.99,SSW,204,2.0,9.0,83,0.00,,---,0.00,VWS V14.01,2013-01-12 18:26:00,
2013-01-12 13:30:00,59.1,54.0,29.99,SSW,211,1.0,9.0,83,0.00,,---,0.00,VWS V14.01,2013-01-12 18:30:00,
2013-01-12 13:31:00,59.1,53.6,29.99,South,180,1.0,4.0,82,0.00,,---,0.00,VWS V14.01,2013-01-12 18:31:00,
2013-01-12 13:36:00,59.3,53.8,29.99,South,190,2.0,6.0,82,0.00,,---,0.00,VWS V14.01,2013-01-12 18:36:00,
2013-01-12 13:41:00,59.4,53.9,29.99,South,184,0.0,7.0,82,0.00,,---,0.00,VWS V14.01,2013-01-12 18:41:00,
2013-01-12 13:46:00,59.4,53.9,29.99,SSW,203,1.0,7.0,82,0.00,,---,0.00,VWS V14.01,2013-01-12 18:46:00,
2013-01-12 13:51:00,59.5,54.0,29.99,SSW,207,2.0,7.0,82,0.00,,---,0.00,VWS V14.01,2013-01-12 18:51:00,
2013-01-12 13:56:00,59.6,53.8,29.99,SW,217,3.0,7.0,81,0.00,,---,0.00,VWS V14.01,2013-01-12 18:56:00,
2013-01-12 14:00:00,59.6,53.8,29.99,SSW,193,2.0,7.0,81,0.00,,---,0.00,VWS V14.01,2013-01-12 19:00:00,
2013-01-12 14:01:00,59.6,53.8,29.99,SE,143,1.0,8.0,81,0.00,,---,0.00,VWS V14.01,2013-01-12 19:01:00,
2013-01-12 14:06:00,59.6,54.1,29.99,SE,142,2.0,8.0,82,0.00,,---,0.00,VWS V14.01,2013-01-12 19:06:00,
2013-01-12 14:11:00,59.7,53.9,29.98,SSW,199,4.0,8.0,81,0.00,,---,0.00,VWS V14.01,2013-01-12 19:11:00,
2013-01-12 14:16:00,59.7,54.2,29.98,South,186,2.0,8.0,82,0.00,,---,0.00,VWS V14.01,2013-01-12 19:16:00,
2013-01-12 14:21:00,59.7,53.9,29.98,SSE,152,3.0,8.0,81,0.00,,---,0.00,VWS V14.01,2013-01-12 19:21:00,
2013-01-12 14:26:00,59.8,54.3,29.98,SSW,199,6.0,8.0,82,0.00,,---,0.00,VWS V14.01,2013-01-12 19:26:00,
2013-01-12 14:30:00,59.8,54.0,29.99,SE,129,3.0,8.0,81,0.00,,---,0.00,VWS V14.01,2013-01-12 19:30:00,
2013-01-12 14:31:00,59.8,54.3,29.99,South,175,1.0,6.0,82,0.00,,---,0.00,VWS V14.01,2013-01-12 19:31:00,
2013-01-12 14:36:00,59.7,54.2,29.99,WSW,242,2.0,6.0,82,0.00,,---,0.00,VWS V14.01,2013-01-12 19:36:00,
2013-01-12 14:41:00,59.6,54.4,29.99,South,180,2.0,6.0,83,0.00,,---,0.00,VWS V14.01,2013-01-12 19:41:00,
2013-01-12 14:46:00,59.4,54.2,29.99,SE,137,5.0,10.0,83,0.00,,---,0.00,VWS V14.01,2013-01-12 19:46:00,
2013-01-12 14:51:00,59.3,54.2,29.99,SSW,200,4.0,10.0,83,0.00,,---,0.00,VWS V14.01,2013-01-12 19:51:00,
2013-01-12 14:56:00,59.1,54.0,30.00,South,184,3.0,10.0,83,0.00,,---,0.00,VWS V14.01,2013-01-12 19:56:00,
2013-01-12 15:00:00,59.1,54.0,30.00,SW,215,5.0,10.0,83,0.00,,---,0.00,VWS V14.01,2013-01-12 20:00:00,
2013-01-12 15:01:00,59.0,53.8,30.00,South,186,5.0,8.0,83,0.00,,---,0.00,VWS V14.01,2013-01-12 20:01:00,
2013-01-12 15:06:00,59.0,53.8,30.00,SSW,207,0.0,8.0,83,0.00,,---,0.00,VWS V14.01,2013-01-12 20:06:00,
2013-01-12 15:11:00,59.0,53.8,30.00,SSW,207,1.0,8.0,83,0.00,,---,0.00,VWS V14.01,2013-01-12 20:11:00,
2013-01-12 15:16:00,58.9,53.8,30.00,South,190,3.0,10.0,83,0.00,,---,0.00,VWS V14.01,2013-01-12 20:16:00,
2013-01-12 15:21:00,58.9,53.8,29.99,SE,138,3.0,10.0,83,0.00,,---,0.00,VWS V14.01,2013-01-12 20:21:00,
2013-01-12 15:26:00,58.7,53.6,30.00,SW,215,1.0,10.0,83,0.00,,---,0.00,VWS V14.01,2013-01-12 20:26:00,
2013-01-12 15:30:00,58.7,53.6,30.00,South,189,5.0,10.0,83,0.00,,---,0.00,VWS V14.01,2013-01-12 20:30:00,
2013-01-12 15:31:00,58.8,53.7,30.00,SSW,212,3.0,7.0,83,0.00,,---,0.00,VWS V14.01,2013-01-12 20:31:00,
2013-01-12 15:36:00,58.9,53.8,30.00,SSW,204,2.0,8.0,83,0.00,,---,0.00,VWS V14.01,2013-01-12 20:36:00,
2013-01-12 15:41:00,58.8,53.7,30.00,SW,214,1.0,8.0,83,0.00,,---,0.00,VWS V14.01,2013-01-12 20:41:00,
2013-01-12 15:46:00,58.9,53.8,30.00,South,180,4.0,9.0,83,0.00,,---,0.00,VWS V14.01,2013-01-12 20:46:00,
2013-01-12 15:51:00,58.9,53.8,30.00,SSW,208,1.0,9.0,83,0.00,,---,0.00,VWS V14.01,2013-01-12 20:51:00,
2013-01-12 15:56:00,58.9,53.8,30.00,SSW,207,1.0,9.0,83,0.00,,---,0.00,VWS V14.01,2013-01-12 20:56:00,
2013-01-12 16:00:00,58.9,53.8,30.00,South,180,1.0,9.0,83,0.00,,---,0.00,VWS V14.01,2013-01-12 21:00:00,
2013-01-12 16:01:00,58.8,54.0,30.00,SSW,205,0.0,4.0,84,0.00,,---,0.00,VWS V14.01,2013-01-12 21:01:00,
2013-01-12 16:06:00,58.8,54.0,30.01,SSE,166,2.0,8.0,84,0.00,,---,0.00,VWS V14.01,2013-01-12 21:06:00,
2013-01-12 16:11:00,58.8,54.0,30.00,SW,218,1.0,8.0,84,0.00,,---,0.00,VWS V14.01,2013-01-12 21:11:00,
2013-01-12 16:17:00,58.7,53.9,30.00,SSW,196,0.0,8.0,84,0.00,,---,0.00,VWS V14.01,2013-01-12 21:17:00,
2013-01-12 16:22:00,58.6,53.8,30.00,SSW,197,0.0,8.0,84,0.00,,---,0.00,VWS V14.01,2013-01-12 21:22:00,
2013-01-12 16:27:00,58.4,53.6,30.00,SSE,162,0.0,8.0,84,0.00,,---,0.00,VWS V14.01,2013-01-12 21:27:00,
2013-01-12 16:30:00,58.4,53.6,30.00,South,180,1.0,8.0,84,0.00,,---,0.00,VWS V14.01,2013-01-12 21:30:00,
2013-01-12 16:32:00,58.3,53.5,30.00,SSW,198,0.0,5.0,84,0.00,,---,0.00,VWS V14.01,2013-01-12 21:32:00,
2013-01-12 16:37:00,58.1,53.6,30.01,SSW,194,0.0,5.0,85,0.00,,---,0.00,VWS V14.01,2013-01-12 21:37:00,
2013-01-12 16:42:00,58.0,53.5,30.01,ENE,72,2.0,5.0,85,0.00,,---,0.00,VWS V14.01,2013-01-12 21:42:00,
2013-01-12 16:47:00,57.9,53.4,30.01,South,175,4.0,5.0,85,0.00,,---,0.00,VWS V14.01,2013-01-12 21:47:00,
2013-01-12 16:52:00,57.9,53.4,30.01,SSW,209,0.0,5.0,85,0.00,,---,0.00,VWS V14.01,2013-01-12 21:52:00,
2013-01-12 16:57:00,57.8,53.3,30.01,SSE,161,0.0,5.0,85,0.00,,---,0.00,VWS V14.01,2013-01-12 21:57:00,
2013-01-12 17:00:00,57.7,53.5,30.01,SSE,161,0.0,5.0,86,0.00,,---,0.00,VWS V14.01,2013-01-12 22:00:00,
2013-01-12 17:02:00,57.6,53.5,30.01,SSE,161,0.0,2.0,86,0.00,,---,0.00,VWS V14.01,2013-01-12 22:02:00,
2013-01-12 17:07:00,57.5,53.3,30.02,SSE,161,0.0,2.0,86,0.00,,---,0.00,VWS V14.01,2013-01-12 22:07:00,
2013-01-12 17:12:00,57.3,53.2,30.01,SSE,161,0.0,2.0,86,0.00,,---,0.00,VWS V14.01,2013-01-12 22:12:00,
2013-01-12 17:17:00,57.0,53.2,30.01,SSE,161,0.0,2.0,87,0.00,,---,0.00,VWS V14.01,2013-01-12 22:17:00,
2013-01-12 17:22:00,56.9,53.1,30.01,SSE,161,0.0,2.0,87,0.00,,---,0.00,VWS V14.01,2013-01-12 22:22:00,
2013-01-12 17:27:00,56.7,53.2,30.01,SSE,161,0.0,2.0,88,0.00,,---,0.00,VWS V14.01,2013-01-12 22:27:00,
2013-01-12 17:30:00,56.6,53.1,30.01,SSE,161,0.0,2.0,88,0.00,,---,0.00,VWS V14.01,2013-01-12 22:30:00,
2013-01-12 17:32:00,56.5,53.0,30.01,SSE,161,0.0,0.0,88,0.00,,---,0.00,VWS V14.01,2013-01-12 22:32:00,
2013-01-12 17:37:00,56.3,52.8,30.01,SSE,161,0.0,0.0,88,0.00,,---,0.00,VWS V14.01,2013-01-12 22:37:00,
2013-01-12 17:42:00,56.0,52.5,30.00,SSE,161,0.0,0.0,88,0.00,,---,0.00,VWS V14.01,2013-01-12 22:42:00,
2013-01-12 17:47:00,55.7,52.2,29.99,SSE,161,0.0,0.0,88,0.00,,---,0.00,VWS V14.01,2013-01-12 22:47:00,
2013-01-12 17:52:00,55.3,51.8,29.99,SSE,161,0.0,0.0,88,0.00,,---,0.00,VWS V14.01,2013-01-12 22:52:00,
2013-01-12 17:57:00,54.6,51.4,29.99,SSE,161,0.0,1.0,89,0.00,,---,0.00,VWS V14.01,2013-01-12 22:57:00,
2013-01-12 18:00:00,54.5,51.3,29.99,SSE,161,0.0,1.0,89,0.00,,---,0.00,VWS V14.01,2013-01-12 23:00:00,
2013-01-12 18:02:00,54.1,51.2,29.99,SSE,161,0.0,0.0,90,0.00,,---,0.00,VWS V14.01,2013-01-12 23:02:00,
2013-01-12 18:07:00,53.7,51.1,29.99,SSE,161,0.0,0.0,91,0.00,,---,0.00,VWS V14.01,2013-01-12 23:07:00,
2013-01-12 18:12:00,53.3,50.7,29.99,SSE,161,0.0,0.0,91,0.00,,---,0.00,VWS V14.01,2013-01-12 23:12:00,
2013-01-12 18:17:00,52.8,50.2,29.99,SSE,161,0.0,0.0,91,0.00,,---,0.00,VWS V14.01,2013-01-12 23:17:00,
2013-01-12 18:22:00,52.5,50.2,29.99,SSE,161,0.0,0.0,92,0.00,,---,0.00,VWS V14.01,2013-01-12 23:22:00,
2013-01-12 18:27:00,52.1,49.8,29.99,SSE,161,0.0,0.0,92,0.00,,---,0.00,VWS V14.01,2013-01-12 23:27:00,
2013-01-12 18:30:00,52.1,49.8,29.99,SSE,161,0.0,0.0,92,0.00,,---,0.00,VWS V14.01,2013-01-12 23:30:00,
2013-01-12 18:32:00,51.9,49.9,29.99,SSE,161,0.0,0.0,93,0.00,,---,0.00,VWS V14.01,2013-01-12 23:32:00,
2013-01-12 18:37:00,51.6,49.4,29.99,SSE,161,0.0,0.0,92,0.00,,---,0.00,VWS V14.01,2013-01-12 23:37:00,
2013-01-12 18:42:00,51.1,48.9,29.99,SSE,161,0.0,0.0,92,0.00,,---,0.00,VWS V14.01,2013-01-12 23:42:00,
2013-01-12 18:47:00,50.8,48.8,29.99,SSE,161,0.0,0.0,93,0.00,,---,0.00,VWS V14.01,2013-01-12 23:47:00,
2013-01-12 18:52:00,50.6,48.7,29.99,SSE,161,0.0,0.0,93,0.00,,---,0.00,VWS V14.01,2013-01-12 23:52:00,
2013-01-12 18:57:00,50.4,48.5,29.99,SSE,161,0.0,0.0,93,0.00,,---,0.00,VWS V14.01,2013-01-12 23:57:00,
2013-01-12 19:00:00,50.4,48.5,29.99,SSE,161,0.0,0.0,93,0.00,,---,0.00,VWS V14.01,2013-01-13 00:00:00,
2013-01-12 19:02:00,50.1,48.2,29.99,SSE,161,0.0,0.0,93,0.00,,---,0.00,VWS V14.01,2013-01-13 00:02:00,
2013-01-12 19:07:00,50.0,48.1,29.99,SSE,161,0.0,0.0,93,0.00,,---,0.00,VWS V14.01,2013-01-13 00:07:00,
2013-01-12 19:12:00,49.7,48.0,29.99,SSE,161,0.0,0.0,94,0.00,,---,0.00,VWS V14.01,2013-01-13 00:12:00,
2013-01-12 19:17:00,49.7,48.0,29.99,SSE,161,0.0,0.0,94,0.00,,---,0.00,VWS V14.01,2013-01-13 00:17:00,
2013-01-12 19:22:00,49.7,48.0,29.99,SSE,161,0.0,2.0,94,0.00,,---,0.00,VWS V14.01,2013-01-13 00:22:00,
2013-01-12 19:27:00,49.6,48.2,29.99,SSE,161,0.0,2.0,95,0.00,,---,0.00,VWS V14.01,2013-01-13 00:27:00,
2013-01-12 19:30:00,49.6,48.2,29.99,SSE,161,0.0,2.0,95,0.00,,---,0.00,VWS V14.01,2013-01-13 00:30:00,
2013-01-12 19:32:00,49.7,48.3,29.98,SSE,161,0.0,0.0,95,0.00,,---,0.00,VWS V14.01,2013-01-13 00:32:00,
2013-01-12 19:38:00,49.9,48.8,29.98,SSE,161,0.0,0.0,96,0.00,,---,0.00,VWS V14.01,2013-01-13 00:38:00,
2013-01-12 19:43:00,49.9,48.5,29.98,SSE,161,0.0,0.0,95,0.00,,---,0.00,VWS V14.01,2013-01-13 00:43:00,
2013-01-12 19:48:00,49.7,48.3,29.98,SSE,161,0.0,0.0,95,0.00,,---,0.00,VWS V14.01,2013-01-13 00:48:00,
2013-01-12 19:53:00,49.5,48.1,29.99,SSE,161,0.0,0.0,95,0.00,,---,0.00,VWS V14.01,2013-01-13 00:53:00,
2013-01-12 19:57:00,49.3,47.9,29.99,SSE,161,0.0,0.0,95,0.00,,---,0.00,VWS V14.01,2013-01-13 00:57:00,
2013-01-12 20:00:00,49.3,47.9,29.99,SSE,161,0.0,0.0,95,0.00,,---,0.00,VWS V14.01,2013-01-13 01:00:00,
2013-01-12 20:02:00,49.3,48.2,29.98,SSE,161,0.0,0.0,96,0.00,,---,0.00,VWS V14.01,2013-01-13 01:02:00,
2013-01-12 20:08:00,49.3,48.2,29.98,SSE,161,0.0,0.0,96,0.00,,---,0.00,VWS V14.01,2013-01-13 01:08:00,
2013-01-12 20:13:00,49.4,48.3,29.98,SSE,161,0.0,0.0,96,0.00,,---,0.00,VWS V14.01,2013-01-13 01:13:00,
2013-01-12 20:18:00,49.3,48.2,29.98,SSE,161,0.0,0.0,96,0.00,,---,0.00,VWS V14.01,2013-01-13 01:18:00,
2013-01-12 20:23:00,49.3,48.2,29.98,SSE,161,0.0,0.0,96,0.00,,---,0.00,VWS V14.01,2013-01-13 01:23:00,
2013-01-12 20:28:00,49.3,48.2,29.98,SSE,161,0.0,0.0,96,0.00,,---,0.00,VWS V14.01,2013-01-13 01:28:00,
2013-01-12 20:30:00,49.3,48.2,29.98,SSE,161,0.0,0.0,96,0.00,,---,0.00,VWS V14.01,2013-01-13 01:30:00,
2013-01-12 20:33:00,49.4,48.3,29.97,SSE,161,0.0,1.0,96,0.00,,---,0.00,VWS V14.01,2013-01-13 01:33:00,
2013-01-12 20:38:00,49.5,48.4,29.97,SSE,161,0.0,1.0,96,0.00,,---,0.00,VWS V14.01,2013-01-13 01:38:00,
2013-01-12 20:43:00,49.7,48.6,29.97,SSE,161,0.0,1.0,96,0.00,,---,0.00,VWS V14.01,2013-01-13 01:43:00,
2013-01-12 20:48:00,50.0,49.2,29.97,SSE,161,0.0,2.0,97,0.00,,---,0.00,VWS V14.01,2013-01-13 01:48:00,
2013-01-12 20:53:00,50.1,49.3,29.97,SSE,161,0.0,2.0,97,0.00,,---,0.00,VWS V14.01,2013-01-13 01:53:00,
2013-01-12 20:58:00,50.1,49.3,29.96,SSE,161,0.0,0.0,97,0.00,,---,0.00,VWS V14.01,2013-01-13 01:58:00,
2013-01-12 21:00:00,50.1,49.3,29.96,SSE,161,0.0,2.0,97,0.00,,---,0.00,VWS V14.01,2013-01-13 02:00:00,
2013-01-12 21:03:00,50.0,49.2,29.96,SSE,161,0.0,0.0,97,0.00,,---,0.00,VWS V14.01,2013-01-13 02:03:00,
2013-01-12 21:08:00,49.7,48.6,29.96,SSE,161,0.0,0.0,96,0.00,,---,0.00,VWS V14.01,2013-01-13 02:08:00,
2013-01-12 21:13:00,49.5,48.4,29.96,SSE,161,0.0,1.0,96,0.00,,---,0.00,VWS V14.01,2013-01-13 02:13:00,
2013-01-12 21:18:00,49.6,48.8,29.95,SSE,161,0.0,1.0,97,0.00,,---,0.00,VWS V14.01,2013-01-13 02:18:00,
2013-01-12 21:23:00,49.8,49.0,29.95,SSE,161,0.0,1.0,97,0.00,,---,0.00,VWS V14.01,2013-01-13 02:23:00,
2013-01-12 21:28:00,49.7,48.9,29.95,SSE,161,0.0,0.0,97,0.00,,---,0.00,VWS V14.01,2013-01-13 02:28:00,
2013-01-12 21:30:00,49.7,48.9,29.95,SSE,161,0.0,1.0,97,0.00,,---,0.00,VWS V14.01,2013-01-13 02:30:00,
2013-01-12 21:33:00,50.1,49.3,29.94,SSE,161,0.0,0.0,97,0.00,,---,0.00,VWS V14.01,2013-01-13 02:33:00,
2013-01-12 21:38:00,50.3,49.5,29.94,SSE,161,0.0,1.0,97,0.00,,---,0.00,VWS V14.01,2013-01-13 02:38:00,
2013-01-12 21:43:00,50.8,50.0,29.94,SSE,161,0.0,1.0,97,0.00,,---,0.00,VWS V14.01,2013-01-13 02:43:00,
2013-01-12 21:48:00,51.1,50.3,29.94,SSE,161,0.0,1.0,97,0.00,,---,0.00,VWS V14.01,2013-01-13 02:48:00,
2013-01-12 21:53:00,50.9,50.1,29.94,SSE,161,0.0,1.0,97,0.00,,---,0.00,VWS V14.01,2013-01-13 02:53:00,
2013-01-12 21:58:00,50.8,50.0,29.94,SSE,161,0.0,0.0,97,0.00,,---,0.00,VWS V14.01,2013-01-13 02:58:00,
2013-01-12 22:00:00,50.8,50.0,29.94,SSE,161,0.0,1.0,97,0.00,,---,0.00,VWS V14.01,2013-01-13 03:00:00,
2013-01-12 22:03:00,51.1,50.3,29.94,SSE,161,0.0,0.0,97,0.00,,---,0.00,VWS V14.01,2013-01-13 03:03:00,
2013-01-12 22:08:00,51.5,50.7,29.94,SSE,161,0.0,0.0,97,0.00,,---,0.00,VWS V14.01,2013-01-13 03:08:00,
2013-01-12 22:13:00,51.7,51.2,29.94,SSE,161,0.0,0.0,98,0.00,,---,0.00,VWS V14.01,2013-01-13 03:13:00,
2013-01-12 22:18:00,51.8,51.3,29.94,SSE,161,0.0,0.0,98,0.00,,---,0.00,VWS V14.01,2013-01-13 03:18:00,
2013-01-12 22:23:00,52.2,51.7,29.93,SSE,161,0.0,0.0,98,0.00,,---,0.00,VWS V14.01,2013-01-13 03:23:00,
2013-01-12 22:28:00,52.3,51.8,29.93,SSE,161,0.0,0.0,98,0.00,,---,0.00,VWS V14.01,2013-01-13 03:28:00,
2013-01-12 22:30:00,52.3,51.8,29.93,SSE,161,0.0,0.0,98,0.00,,---,0.00,VWS V14.01,2013-01-13 03:30:00,
2013-01-12 22:33:00,52.3,51.8,29.93,SSE,161,0.0,0.0,98,0.00,,---,0.00,VWS V14.01,2013-01-13 03:33:00,
2013-01-12 22:38:00,52.2,51.7,29.93,SSE,161,0.0,0.0,98,0.00,,---,0.00,VWS V14.01,2013-01-13 03:38:00,
2013-01-12 22:43:00,52.3,51.8,29.92,SSE,161,0.0,1.0,98,0.00,,---,0.00,VWS V14.01,2013-01-13 03:43:00,
2013-01-12 22:48:00,52.6,52.0,29.92,SE,144,0.0,2.0,98,0.00,,---,0.00,VWS V14.01,2013-01-13 03:48:00,
2013-01-12 22:53:00,52.9,52.3,29.92,SE,136,0.0,3.0,98,0.00,,---,0.00,VWS V14.01,2013-01-13 03:53:00,
2013-01-12 22:58:00,53.2,52.7,29.91,SE,136,0.0,0.0,98,0.00,,---,0.00,VWS V14.01,2013-01-13 03:58:00,
2013-01-12 23:00:00,53.1,52.5,29.92,SE,136,0.0,3.0,98,0.00,,---,0.00,VWS V14.01,2013-01-13 04:00:00,
2013-01-12 23:03:00,53.3,52.8,29.91,SE,136,0.0,2.0,98,0.00,,---,0.00,VWS V14.01,2013-01-13 04:03:00,
2013-01-12 23:08:00,53.4,52.8,29.91,ESE,120,0.0,4.0,98,0.00,,---,0.00,VWS V14.01,2013-01-13 04:08:00,
2013-01-12 23:13:00,53.6,53.0,29.91,ESE,121,0.0,4.0,98,0.00,,---,0.00,VWS V14.01,2013-01-13 04:13:00,
2013-01-12 23:18:00,53.8,53.2,29.91,SE,144,1.0,4.0,98,0.00,,---,0.00,VWS V14.01,2013-01-13 04:18:00,
2013-01-12 23:23:00,54.1,53.5,29.90,ESE,106,0.0,5.0,98,0.00,,---,0.00,VWS V14.01,2013-01-13 04:23:00,
2013-01-12 23:28:00,54.2,53.7,29.90,SSE,155,4.0,4.0,98,0.00,,---,0.00,VWS V14.01,2013-01-13 04:28:00,
2013-01-12 23:30:00,54.2,53.7,29.90,SE,144,0.0,5.0,98,0.00,,---,0.00,VWS V14.01,2013-01-13 04:30:00,
2013-01-12 23:33:00,54.4,53.8,29.90,SSE,159,0.0,4.0,98,0.00,,---,0.00,VWS V14.01,2013-01-13 04:33:00,
2013-01-12 23:38:00,54.7,54.2,29.89,SSE,159,0.0,4.0,98,0.00,,---,0.00,VWS V14.01,2013-01-13 04:38:00,
2013-01-12 23:43:00,54.8,54.2,29.89,SSE,159,0.0,4.0,98,0.00,,---,0.00,VWS V14.01,2013-01-13 04:43:00,
2013-01-12 23:48:00,55.0,54.5,29.88,SE,136,3.0,5.0,98,0.00,,---,0.00,VWS V14.01,2013-01-13 04:48:00,
2013-01-12 23:53:00,55.2,54.7,29.87,SE,133,0.0,5.0,98,0.00,,---,0.00,VWS V14.01,2013-01-13 04:53:00,
2013-01-12 23:59:00,55.1,54.5,29.88,SE,133,0.0,1.0,98,0.00,,---,0.00,VWS V14.01,2013-01-13 04:59:00,